createdAt,value
2022-08-27T00:01:49.473Z,3.30
2022-08-27T00:04:17.762Z,4.17
2022-08-27T00:06:45.617Z,3.70
2022-08-27T00:09:14.139Z,3.80
2022-08-27T00:11:42.097Z,3.80
2022-08-27T00:14:10.082Z,4.00
2022-08-27T00:16:39.295Z,4.50
2022-08-27T00:19:07.240Z,4.30
2022-08-27T00:21:35.065Z,3.90
2022-08-27T00:24:03.161Z,3.63
2022-08-27T00:26:31.526Z,4.13
2022-08-27T00:28:59.348Z,4.40
2022-08-27T00:31:27.776Z,3.87
2022-08-27T00:33:58.201Z,3.57
2022-08-27T00:36:26.322Z,5.10
2022-08-27T00:38:54.901Z,4.40
2022-08-27T00:41:24.329Z,3.83
2022-08-27T00:43:55.025Z,3.43
2022-08-27T00:46:26.102Z,3.93
2022-08-27T00:48:58.982Z,3.53
2022-08-27T00:51:28.258Z,3.83
2022-08-27T00:53:58.345Z,3.70
2022-08-27T00:56:28.895Z,3.40
2022-08-27T00:58:57.781Z,3.20
2022-08-27T01:01:30.386Z,3.60
2022-08-27T01:04:03.307Z,4.20
2022-08-27T01:06:36.474Z,3.60
2022-08-27T01:09:10.397Z,3.50
2022-08-27T01:11:38.816Z,3.30
2022-08-27T01:14:07.316Z,3.30
2022-08-27T01:16:40.105Z,3.60
2022-08-27T01:19:15.337Z,3.70
2022-08-27T01:21:51.148Z,3.97
2022-08-27T01:24:32.131Z,3.53
2022-08-27T01:27:01.831Z,3.90
2022-08-27T01:29:30.882Z,3.83
2022-08-27T01:32:06.689Z,4.10
2022-08-27T01:34:34.658Z,4.00
2022-08-27T01:37:02.514Z,4.57
2022-08-27T01:39:31.989Z,4.53
2022-08-27T01:42:05.024Z,4.77
2022-08-27T01:44:43.756Z,4.70
2022-08-27T01:47:11.906Z,4.30
2022-08-27T01:49:39.773Z,4.13
2022-08-27T01:52:07.614Z,4.13
2022-08-27T01:54:37.255Z,4.50
2022-08-27T01:57:05.527Z,4.40
2022-08-27T01:59:39.821Z,4.50
2022-08-27T02:02:08.566Z,4.77
2022-08-27T02:04:36.453Z,4.60
2022-08-27T02:07:05.358Z,4.57
2022-08-27T02:09:33.849Z,4.70
2022-08-27T02:12:03.784Z,5.10
2022-08-27T02:14:32.333Z,4.87
2022-08-27T02:17:00.382Z,4.90
2022-08-27T02:19:28.286Z,4.00
2022-08-27T02:22:00.085Z,5.10
2022-08-27T02:24:28.928Z,4.90
2022-08-27T02:26:57.719Z,5.40
2022-08-27T02:29:27.064Z,4.70
2022-08-27T02:31:55.369Z,4.73
2022-08-27T02:34:23.474Z,4.60
2022-08-27T02:36:52.279Z,4.80
2022-08-27T02:39:20.082Z,4.83
2022-08-27T02:41:48.370Z,4.53
2022-08-27T02:44:16.401Z,4.83
2022-08-27T02:46:45.588Z,4.47
2022-08-27T02:49:13.516Z,4.60
2022-08-27T02:51:42.486Z,5.17
2022-08-27T02:54:10.433Z,5.37
2022-08-27T02:56:39.393Z,5.53
2022-08-27T02:59:07.226Z,4.97
2022-08-27T03:01:36.393Z,4.97
2022-08-27T03:04:05.817Z,5.60
2022-08-27T03:06:33.705Z,4.40
2022-08-27T03:09:01.573Z,4.30
2022-08-27T03:11:29.463Z,4.07
2022-08-27T03:13:57.316Z,4.37
2022-08-27T03:16:25.626Z,5.23
2022-08-27T03:18:52.765Z,4.50
2022-08-27T03:21:26.228Z,5.20
2022-08-27T03:23:54.707Z,5.60
2022-08-27T03:26:22.641Z,5.17
2022-08-27T03:28:50.527Z,5.37
2022-08-27T03:31:26.882Z,6.00
2022-08-27T03:33:56.674Z,5.80
2022-08-27T03:36:26.274Z,4.83
2022-08-27T03:38:54.430Z,5.13
2022-08-27T03:41:22.517Z,5.00
2022-08-27T03:43:52.838Z,4.90
2022-08-27T03:46:22.767Z,5.33
2022-08-27T03:48:52.250Z,4.47
2022-08-27T03:51:26.641Z,4.20
2022-08-27T03:53:54.461Z,4.03
2022-08-27T03:56:23.132Z,3.87
2022-08-27T03:58:50.968Z,4.73
2022-08-27T04:01:19.302Z,4.40
2022-08-27T04:03:47.197Z,4.80
2022-08-27T04:06:15.065Z,5.03
2022-08-27T04:08:44.253Z,4.50
2022-08-27T04:11:12.385Z,4.50
2022-08-27T04:13:40.875Z,4.33
2022-08-27T04:16:08.831Z,3.83
2022-08-27T04:18:36.752Z,4.27
2022-08-27T04:21:09.502Z,4.17
2022-08-27T04:23:37.345Z,3.47
2022-08-27T04:26:07.932Z,3.40
2022-08-27T04:28:38.642Z,3.47
2022-08-27T04:31:12.835Z,3.70
2022-08-27T04:33:51.376Z,3.30
2022-08-27T04:36:19.973Z,3.97
2022-08-27T04:38:48.253Z,4.30
2022-08-27T04:41:21.260Z,3.67
2022-08-27T04:43:50.661Z,3.63
2022-08-27T04:46:23.474Z,3.53
2022-08-27T04:48:52.864Z,3.90
2022-08-27T04:51:22.569Z,3.60
2022-08-27T04:53:50.914Z,3.30
2022-08-27T04:56:22.665Z,3.80
2022-08-27T04:58:51.322Z,4.40
2022-08-27T05:01:21.588Z,3.43
2022-08-27T05:03:49.948Z,3.60
2022-08-27T05:06:18.109Z,3.60
2022-08-27T05:08:46.272Z,3.80
2022-08-27T05:11:15.999Z,4.30
2022-08-27T05:13:46.410Z,4.00
2022-08-27T05:16:16.587Z,3.57
2022-08-27T05:18:48.081Z,3.30
2022-08-27T05:21:19.377Z,3.97
2022-08-27T05:23:47.537Z,3.47
2022-08-27T05:26:15.745Z,4.10
2022-08-27T05:28:45.425Z,3.60
2022-08-27T05:31:15.604Z,3.60
2022-08-27T05:33:44.674Z,3.33
2022-08-27T05:36:17.833Z,3.17
2022-08-27T05:38:45.790Z,3.40
2022-08-27T05:41:15.840Z,3.40
2022-08-27T05:43:49.842Z,3.27
2022-08-27T05:46:20.433Z,3.77
2022-08-27T05:48:48.941Z,3.77
2022-08-27T05:51:25.336Z,3.17
2022-08-27T05:53:56.732Z,3.90
2022-08-27T05:56:26.815Z,3.57
2022-08-27T05:59:14.328Z,3.73
2022-08-27T06:01:44.859Z,4.37
2022-08-27T06:04:17.725Z,4.07
2022-08-27T06:06:47.221Z,3.67
2022-08-27T06:09:17.852Z,3.50
2022-08-27T06:11:46.412Z,4.43
2022-08-27T06:14:16.025Z,3.93
2022-08-27T06:16:43.929Z,3.70
2022-08-27T06:19:12.960Z,3.67
2022-08-27T06:21:41.954Z,3.90
2022-08-27T06:24:12.698Z,4.47
2022-08-27T06:26:44.797Z,3.90
2022-08-27T06:29:15.488Z,3.63
2022-08-27T06:31:43.423Z,3.70
2022-08-27T06:34:12.084Z,4.40
2022-08-27T06:36:43.214Z,4.40
2022-08-27T06:39:13.707Z,4.90
2022-08-27T06:41:42.705Z,3.90
2022-08-27T06:44:11.062Z,3.90
2022-08-27T06:46:41.192Z,4.13
2022-08-27T06:49:09.164Z,4.67
2022-08-27T06:51:38.317Z,4.30
2022-08-27T06:54:09.237Z,4.17
2022-08-27T06:56:37.801Z,4.77
2022-08-27T06:59:11.957Z,4.73
2022-08-27T07:01:44.587Z,5.07
2022-08-27T07:04:15.001Z,5.20
2022-08-27T07:06:43.641Z,4.30
2022-08-27T07:09:12.122Z,5.63
2022-08-27T07:11:40.861Z,6.00
2022-08-27T07:14:09.560Z,6.03
2022-08-27T07:16:37.681Z,6.00
2022-08-27T07:19:10.064Z,6.13
2022-08-27T07:21:40.286Z,6.73
2022-08-27T07:24:09.739Z,6.10
2022-08-27T07:26:39.537Z,6.70
2022-08-27T07:29:09.845Z,7.50
2022-08-27T07:31:38.720Z,6.83
2022-08-27T07:34:07.340Z,7.23
2022-08-27T07:36:37.695Z,7.07
2022-08-27T07:39:06.544Z,7.53
2022-08-27T07:41:57.204Z,6.87
2022-08-27T07:44:31.035Z,7.07
2022-08-27T07:47:02.628Z,7.80
2022-08-27T07:49:31.465Z,7.23
2022-08-27T07:52:00.631Z,7.40
2022-08-27T07:54:28.892Z,7.03
2022-08-27T07:56:57.128Z,7.30
2022-08-27T07:59:26.260Z,7.53
2022-08-27T08:01:54.782Z,6.93
2022-08-27T08:04:23.524Z,7.43
2022-08-27T08:06:52.882Z,6.50
2022-08-27T08:09:23.862Z,6.20
2022-08-27T08:11:52.636Z,5.87
2022-08-27T08:14:21.497Z,6.07
2022-08-27T08:16:49.433Z,6.10
2022-08-27T08:19:17.693Z,6.13
2022-08-27T08:21:45.567Z,5.20
2022-08-27T08:24:13.426Z,6.00
2022-08-27T08:26:44.133Z,6.03
2022-08-27T08:29:13.269Z,5.70
2022-08-27T08:31:45.649Z,6.80
2022-08-27T08:34:18.417Z,5.83
2022-08-27T08:36:54.037Z,5.87
2022-08-27T08:39:23.182Z,5.40
2022-08-27T08:41:55.355Z,5.20
2022-08-27T08:44:32.417Z,4.43
2022-08-27T08:47:04.446Z,5.27
2022-08-27T08:49:42.131Z,5.07
2022-08-27T08:52:31.198Z,5.40
2022-08-27T08:55:08.372Z,5.20
2022-08-27T08:57:43.564Z,4.50
2022-08-27T09:00:14.118Z,5.30
2022-08-27T09:02:48.088Z,4.30
2022-08-27T09:05:16.468Z,5.70
2022-08-27T09:07:48.773Z,4.73
2022-08-27T09:10:27.302Z,4.50
2022-08-27T09:13:02.297Z,5.30
2022-08-27T09:15:34.276Z,4.40
2022-08-27T09:18:07.689Z,5.17
2022-08-27T09:20:48.339Z,5.00
2022-08-27T09:23:23.539Z,4.50
2022-08-27T09:25:51.400Z,4.73
2022-08-27T09:28:44.001Z,4.57
2022-08-27T09:31:14.873Z,4.87
2022-08-27T09:33:56.797Z,4.70
2022-08-27T09:36:25.986Z,4.57
2022-08-27T09:38:58.177Z,4.73
2022-08-27T09:41:31.484Z,4.27
2022-08-27T09:44:08.681Z,4.43
2022-08-27T09:46:36.598Z,4.00
2022-08-27T09:49:11.930Z,4.00
2022-08-27T09:51:43.053Z,3.67
2022-08-27T09:54:11.620Z,4.80
2022-08-27T09:56:42.389Z,3.93
2022-08-27T09:59:13.528Z,3.73
2022-08-27T10:01:52.188Z,4.03
2022-08-27T10:04:27.323Z,3.30
2022-08-27T10:06:55.521Z,4.23
2022-08-27T10:09:29.529Z,3.40
2022-08-27T10:12:02.874Z,3.60
2022-08-27T10:14:35.884Z,3.60
2022-08-27T10:17:12.929Z,3.50
2022-08-27T10:19:51.368Z,4.10
2022-08-27T10:22:33.452Z,4.00
2022-08-27T10:25:11.744Z,2.87
2022-08-27T10:27:50.474Z,3.37
2022-08-27T10:30:23.294Z,2.73
2022-08-27T10:33:04.259Z,3.27
2022-08-27T10:35:36.885Z,2.57
2022-08-27T10:38:22.468Z,2.33
2022-08-27T10:40:59.365Z,2.20
2022-08-27T10:43:57.924Z,2.90
2022-08-27T10:46:50.213Z,3.20
2022-08-27T10:49:30.030Z,3.13
2022-08-27T10:52:08.264Z,2.97
2022-08-27T10:54:40.537Z,2.30
2022-08-27T10:57:35.464Z,2.60
2022-08-27T11:00:10.354Z,2.13
2022-08-27T11:02:45.141Z,2.70
2022-08-27T11:05:18.243Z,2.60
2022-08-27T11:07:50.484Z,2.50
2022-08-27T11:10:25.256Z,3.10
2022-08-27T11:12:56.986Z,2.63
2022-08-27T11:15:28.580Z,2.30
2022-08-27T11:18:04.572Z,2.60
2022-08-27T11:20:37.029Z,2.27
2022-08-27T11:23:07.777Z,2.50
2022-08-27T11:25:43.909Z,3.10
2022-08-27T11:28:13.095Z,3.37
2022-08-27T11:30:52.786Z,3.30
2022-08-27T11:33:30.040Z,3.20
2022-08-27T11:36:22.730Z,2.90
2022-08-27T11:38:58.192Z,3.17
2022-08-27T11:41:52.636Z,3.00
2022-08-27T11:44:23.229Z,2.90
2022-08-27T11:46:56.023Z,2.50
2022-08-27T11:49:30.730Z,2.97
2022-08-27T11:52:02.764Z,3.40
2022-08-27T11:54:32.820Z,3.33
2022-08-27T11:57:00.756Z,3.50
2022-08-27T11:59:34.164Z,3.13
2022-08-27T12:02:21.112Z,3.40
2022-08-27T12:04:52.037Z,4.03
2022-08-27T12:07:31.714Z,3.83
2022-08-27T12:10:24.537Z,4.23
2022-08-27T12:13:09.984Z,4.10
2022-08-27T12:15:57.407Z,4.20
2022-08-27T12:18:44.130Z,3.10
2022-08-27T12:21:20.695Z,3.30
2022-08-27T12:24:04.465Z,4.13
2022-08-27T12:26:35.289Z,3.20
2022-08-27T12:29:24.437Z,3.53
2022-08-27T12:32:03.086Z,3.03
2022-08-27T12:34:42.314Z,2.70
2022-08-27T12:37:14.118Z,2.97
2022-08-27T12:39:49.240Z,3.03
2022-08-27T12:42:21.341Z,3.27
2022-08-27T12:44:55.186Z,2.10
2022-08-27T12:47:23.542Z,2.30
2022-08-27T12:49:56.433Z,2.80
2022-08-27T12:52:46.665Z,2.53
2022-08-27T12:55:23.870Z,2.37
2022-08-27T12:58:00.503Z,3.30
2022-08-27T13:00:36.024Z,2.73
2022-08-27T13:03:22.263Z,2.60
2022-08-27T13:05:56.633Z,2.30
2022-08-27T13:08:29.785Z,2.40
2022-08-27T13:11:07.442Z,2.03
2022-08-27T13:13:42.105Z,2.20
2022-08-27T13:16:10.106Z,2.77
2022-08-27T13:18:38.533Z,1.77
2022-08-27T13:21:15.120Z,2.30
2022-08-27T13:23:50.500Z,2.73
2022-08-27T13:26:23.305Z,2.80
2022-08-27T13:28:52.474Z,2.97
2022-08-27T13:31:21.992Z,2.27
2022-08-27T13:33:50.583Z,2.73
2022-08-27T13:36:28.499Z,2.90
2022-08-27T13:39:03.513Z,2.60
2022-08-27T13:41:33.992Z,2.37
2022-08-27T13:44:14.014Z,2.50
2022-08-27T13:46:48.633Z,3.17
2022-08-27T13:49:25.263Z,2.27
2022-08-27T13:52:01.748Z,2.17
2022-08-27T13:54:31.676Z,3.00
2022-08-27T13:57:08.656Z,2.00
2022-08-27T13:59:42.152Z,2.50
2022-08-27T14:02:22.422Z,2.80
2022-08-27T14:04:52.829Z,2.10
2022-08-27T14:07:25.599Z,2.17
2022-08-27T14:09:58.545Z,2.40
2022-08-27T14:12:32.789Z,2.00
2022-08-27T14:15:19.075Z,2.40
2022-08-27T14:17:47.457Z,2.50
2022-08-27T14:20:16.513Z,2.67
2022-08-27T14:22:45.430Z,1.87
2022-08-27T14:25:15.144Z,2.20
2022-08-27T14:27:53.965Z,2.33
2022-08-27T14:30:29.603Z,2.67
2022-08-27T14:33:02.393Z,2.60
2022-08-27T14:35:32.195Z,2.60
2022-08-27T14:38:01.344Z,3.00
2022-08-27T14:40:31.292Z,2.40
2022-08-27T14:43:01.029Z,2.13
2022-08-27T14:45:29.013Z,2.40
2022-08-27T14:48:02.121Z,2.70
2022-08-27T14:50:30.409Z,2.60
2022-08-27T14:52:58.397Z,2.80
2022-08-27T14:55:26.190Z,2.37
2022-08-27T14:57:55.381Z,2.90
2022-08-27T15:00:23.267Z,2.97
2022-08-27T15:02:51.416Z,2.30
2022-08-27T15:05:24.758Z,2.67
2022-08-27T15:07:54.713Z,2.43
2022-08-27T15:10:22.628Z,2.40
2022-08-27T15:12:50.934Z,2.63
2022-08-27T15:15:20.376Z,2.50
2022-08-27T15:17:48.240Z,2.60
2022-08-27T15:20:19.987Z,3.20
2022-08-27T15:22:49.173Z,4.00
2022-08-27T15:25:17.834Z,4.50
2022-08-27T15:27:45.829Z,3.80
2022-08-27T15:30:16.221Z,4.37
2022-08-27T15:32:48.010Z,4.40
2022-08-27T15:35:18.614Z,4.53
2022-08-27T15:37:47.088Z,4.10
2022-08-27T15:40:16.912Z,4.10
2022-08-27T15:42:45.229Z,4.20
2022-08-27T15:45:14.783Z,4.17
2022-08-27T15:47:42.629Z,3.90
2022-08-27T15:50:12.188Z,4.60
2022-08-27T15:52:42.277Z,4.97
2022-08-27T15:55:19.549Z,4.30
2022-08-27T15:57:47.473Z,4.80
2022-08-27T16:00:17.574Z,4.90
2022-08-27T16:02:46.751Z,5.27
2022-08-27T16:05:16.911Z,4.40
2022-08-27T16:07:45.195Z,5.00
2022-08-27T16:10:13.736Z,4.33
2022-08-27T16:12:41.914Z,4.30
2022-08-27T16:15:10.350Z,4.07
2022-08-27T16:17:38.968Z,4.70
2022-08-27T16:20:08.829Z,5.00
2022-08-27T16:22:38.362Z,4.13
2022-08-27T16:25:07.906Z,3.70
2022-08-27T16:27:37.469Z,3.57
2022-08-27T16:30:08.087Z,3.07
2022-08-27T16:32:35.923Z,3.33
2022-08-27T16:35:03.798Z,3.77
2022-08-27T16:37:31.669Z,3.13
2022-08-27T16:40:00.909Z,2.90
2022-08-27T16:42:28.819Z,2.90
2022-08-27T16:44:56.677Z,3.13
2022-08-27T16:47:24.492Z,2.80
2022-08-27T16:50:09.655Z,2.93
2022-08-27T16:52:51.157Z,3.47
2022-08-27T16:55:20.429Z,3.43
2022-08-27T16:57:48.302Z,3.47
2022-08-27T17:00:16.462Z,4.00
2022-08-27T17:02:44.328Z,3.40
2022-08-27T17:05:33.521Z,4.37
2022-08-27T17:08:00.394Z,4.77
2022-08-27T17:10:35.692Z,5.00
2022-08-27T17:13:03.564Z,5.27
2022-08-27T17:15:31.589Z,5.60
2022-08-27T17:17:59.564Z,5.17
2022-08-27T17:20:27.522Z,5.40
2022-08-27T17:22:59.124Z,5.20
2022-08-27T17:25:30.325Z,5.90
2022-08-27T17:28:00.561Z,5.57
2022-08-27T17:30:29.014Z,5.80
2022-08-27T17:32:56.939Z,5.27
2022-08-27T17:35:24.834Z,6.17
2022-08-27T17:37:52.693Z,5.93
2022-08-27T17:40:20.766Z,6.07
2022-08-27T17:42:49.209Z,5.90
2022-08-27T17:45:18.587Z,6.63
2022-08-27T17:47:46.506Z,6.83
2022-08-27T17:50:14.333Z,6.73
2022-08-27T17:52:42.170Z,6.60
2022-08-27T17:55:10.548Z,6.33
2022-08-27T17:57:40.484Z,7.77
2022-08-27T18:00:10.285Z,7.37
2022-08-27T18:02:42.640Z,6.80
2022-08-27T18:05:13.244Z,7.10
2022-08-27T18:07:41.625Z,7.00
2022-08-27T18:10:11.325Z,7.43
2022-08-27T18:12:41.277Z,7.97
2022-08-27T18:15:14.393Z,6.77
2022-08-27T18:17:43.874Z,8.30
2022-08-27T18:20:13.894Z,7.97
2022-08-27T18:22:48.479Z,7.03
2022-08-27T18:25:18.566Z,7.97
2022-08-27T18:27:49.827Z,7.20
2022-08-27T18:30:17.880Z,6.90
2022-08-27T18:32:47.292Z,6.90
2022-08-27T18:35:18.991Z,7.37
2022-08-27T18:37:47.949Z,7.37
2022-08-27T18:40:17.918Z,8.03
2022-08-27T18:42:46.777Z,6.83
2022-08-27T18:45:17.681Z,7.03
2022-08-27T18:47:46.910Z,7.17
2022-08-27T18:50:19.530Z,7.67
2022-08-27T18:52:48.501Z,7.00
2022-08-27T18:55:18.505Z,6.80
2022-08-27T18:57:46.586Z,7.77
2022-08-27T19:00:18.721Z,7.20
2022-08-27T19:02:52.694Z,7.73
2022-08-27T19:05:25.372Z,7.50
2022-08-27T19:07:55.187Z,7.17
2022-08-27T19:10:23.917Z,7.33
2022-08-27T19:12:51.842Z,7.70
2022-08-27T19:15:20.154Z,6.83
2022-08-27T19:17:53.041Z,7.13
2022-08-27T19:20:21.224Z,7.93
2022-08-27T19:22:49.769Z,7.43
2022-08-27T19:25:18.289Z,7.70
2022-08-27T19:27:47.249Z,7.97
2022-08-27T19:30:16.373Z,6.60
2022-08-27T19:32:44.733Z,7.30
2022-08-27T19:35:15.169Z,7.17
2022-08-27T19:37:52.660Z,7.70
2022-08-27T19:40:22.705Z,7.87
2022-08-27T19:42:51.353Z,6.60
2022-08-27T19:45:23.336Z,6.80
2022-08-27T19:47:52.700Z,6.20
2022-08-27T19:50:23.394Z,6.20
2022-08-27T19:52:51.825Z,6.20
2022-08-27T19:55:19.923Z,5.60
2022-08-27T19:57:48.281Z,6.67
2022-08-27T20:00:20.350Z,6.30
2022-08-27T20:02:50.647Z,6.70
2022-08-27T20:05:21.438Z,5.60
2022-08-27T20:07:50.056Z,5.10
2022-08-27T20:10:18.450Z,5.80
2022-08-27T20:12:46.451Z,5.83
2022-08-27T20:15:15.217Z,6.20
2022-08-27T20:17:44.060Z,5.07
2022-08-27T20:20:14.705Z,5.30
2022-08-27T20:22:44.089Z,6.00
2022-08-27T20:25:13.197Z,5.40
2022-08-27T20:27:41.607Z,5.43
2022-08-27T20:30:12.950Z,5.13
2022-08-27T20:32:41.265Z,4.73
2022-08-27T20:35:10.725Z,4.90
2022-08-27T20:37:42.147Z,5.80
2022-08-27T20:40:15.496Z,4.80
2022-08-27T20:42:44.261Z,5.60
2022-08-27T20:45:12.727Z,5.93
2022-08-27T20:47:41.272Z,5.27
2022-08-27T20:50:09.393Z,5.67
2022-08-27T20:52:40.009Z,6.03
2022-08-27T20:55:09.676Z,4.43
2022-08-27T20:58:02.091Z,4.57
2022-08-27T21:00:34.728Z,4.70
2022-08-27T21:03:02.733Z,4.60
2022-08-27T21:05:33.200Z,4.53
2022-08-27T21:08:01.100Z,3.33
2022-08-27T21:10:29.372Z,3.47
2022-08-27T21:12:59.793Z,3.20
2022-08-27T21:15:30.217Z,2.87
2022-08-27T21:17:58.118Z,2.30
2022-08-27T21:20:25.973Z,1.87
2022-08-27T21:22:55.906Z,1.70
2022-08-27T21:25:25.137Z,1.77
2022-08-27T21:27:53.804Z,1.90
2022-08-27T21:30:24.517Z,1.63
2022-08-27T21:32:55.685Z,1.67
2022-08-27T21:35:26.312Z,1.70
2022-08-27T21:37:54.209Z,1.30
2022-08-27T21:40:22.856Z,1.40
2022-08-27T21:42:50.779Z,1.30
2022-08-27T21:45:19.914Z,1.43
2022-08-27T21:47:51.656Z,1.20
2022-08-27T21:50:20.113Z,1.07
2022-08-27T21:52:48.101Z,1.17
2022-08-27T21:55:16.195Z,0.90
2022-08-27T21:57:44.024Z,0.90
2022-08-27T22:00:22.697Z,1.00
2022-08-27T22:02:51.956Z,0.90
2022-08-27T22:05:20.284Z,1.07
2022-08-27T22:07:48.456Z,0.80
2022-08-27T22:10:16.613Z,0.90
2022-08-27T22:12:44.461Z,1.07
2022-08-27T22:15:12.490Z,1.03
2022-08-27T22:17:40.288Z,0.77
2022-08-27T22:20:11.248Z,0.70
2022-08-27T22:22:39.388Z,1.10
2022-08-27T22:25:08.756Z,0.73
2022-08-27T22:27:39.055Z,1.10
2022-08-27T22:30:11.136Z,0.90
2022-08-27T22:32:40.141Z,1.00
2022-08-27T22:35:11.175Z,0.90
2022-08-27T22:37:39.327Z,1.10
2022-08-27T22:40:11.657Z,1.20
2022-08-27T22:42:47.678Z,0.80
2022-08-27T22:45:16.197Z,1.20
2022-08-27T22:47:44.132Z,1.40
2022-08-27T22:50:13.596Z,1.20
2022-08-27T22:52:42.993Z,1.17
2022-08-27T22:55:12.517Z,0.90
2022-08-27T22:57:40.893Z,1.23
2022-08-27T23:02:50.070Z,1.10
2022-08-27T23:05:19.412Z,1.10
2022-08-27T23:07:47.713Z,0.83
2022-08-27T23:10:18.755Z,1.10
2022-08-27T23:12:47.002Z,0.90
2022-08-27T23:15:17.163Z,1.00
2022-08-27T23:17:45.276Z,1.27
2022-08-27T23:20:14.220Z,1.20
2022-08-27T23:22:43.898Z,1.10
2022-08-27T23:25:31.017Z,1.10
2022-08-27T23:27:59.905Z,1.40
2022-08-27T23:30:28.344Z,1.27
2022-08-27T23:32:56.885Z,1.00
2022-08-27T23:35:26.814Z,1.13
2022-08-27T23:37:56.856Z,1.50
2022-08-27T23:40:25.901Z,1.30
2022-08-27T23:42:54.782Z,1.60
2022-08-27T23:45:26.328Z,1.77
2022-08-27T23:47:54.464Z,1.17
2022-08-27T23:50:29.057Z,1.30
2022-08-27T23:53:04.944Z,1.13
2022-08-27T23:55:33.357Z,1.30
2022-08-27T23:58:01.330Z,1.30
